Terminal Aerodrome Forecast
Issued by NWS Atlanta, GA

Home | Current Version | Previous Version | Text Only | Print | Product List | Glossary On
Versions: 1 2 3 4 5 6 7 8 9 10 11 12 13 14 15 16 17 18 19 20 21 22 23 24 25 26 27 28 29 30 31 32 33 34
000
FTUS42 KFFC 181305 AAA
TAFCSG
TAF AMD
KCSG 181305Z 1813/1912 34010KT P6SM VCSH SCT018 BKN040
      TEMPO 1813/1815 BKN018
     FM181500 32010G18KT P6SM SCT040 BKN120
     FM182300 35008KT P6SM BKN120
     FM190500 04007KT P6SM BKN060=

USA.gov is the U.S. government's official web portal to all federal, state and local government web resources and services.